createdAt,value
2023-04-25T00:01:54.510Z,5.33
2023-04-25T00:03:58.953Z,5.33
2023-04-25T00:06:04.863Z,5.35
2023-04-25T00:08:09.573Z,5.40
2023-04-25T00:10:14.049Z,5.41
2023-04-25T00:12:18.689Z,5.43
2023-04-25T00:14:27.200Z,5.47
2023-04-25T00:16:35.072Z,5.47
2023-04-25T00:18:40.985Z,5.48
2023-04-25T00:20:47.844Z,5.49
2023-04-25T00:22:54.038Z,5.50
2023-04-25T00:24:58.710Z,5.52
2023-04-25T00:27:03.849Z,5.52
2023-04-25T00:29:08.043Z,5.53
2023-04-25T00:31:12.800Z,5.53
2023-04-25T00:33:17.396Z,5.53
2023-04-25T00:35:23.320Z,5.50
2023-04-25T00:37:28.038Z,5.50
2023-04-25T00:39:32.521Z,5.49
2023-04-25T00:41:37.393Z,5.47
2023-04-25T00:43:42.769Z,5.47
2023-04-25T00:45:51.896Z,5.46
2023-04-25T00:47:57.071Z,5.44
2023-04-25T00:50:01.566Z,5.42
2023-04-25T00:52:08.120Z,5.40
2023-04-25T00:54:12.746Z,5.38
2023-04-25T00:56:17.566Z,5.36
2023-04-25T00:58:23.117Z,5.35
2023-04-25T01:00:27.439Z,5.33
2023-04-25T01:02:33.167Z,5.30
2023-04-25T01:04:37.458Z,5.28
2023-04-25T01:06:42.649Z,5.26
2023-04-25T01:08:48.875Z,5.22
2023-04-25T01:10:52.978Z,5.19
2023-04-25T01:12:57.843Z,5.16
2023-04-25T01:15:02.052Z,5.14
2023-04-25T01:17:09.052Z,5.11
2023-04-25T01:19:18.834Z,5.09
2023-04-25T01:21:28.561Z,5.08
2023-04-25T01:23:34.596Z,5.04
2023-04-25T01:25:39.603Z,5.02
2023-04-25T01:27:43.686Z,4.99
2023-04-25T01:29:48.673Z,4.98
2023-04-25T01:31:54.092Z,4.97
2023-04-25T01:33:59.163Z,4.94
2023-04-25T01:36:03.581Z,4.94
2023-04-25T01:38:09.772Z,4.91
2023-04-25T01:40:14.970Z,4.88
2023-04-25T01:42:19.252Z,4.85
2023-04-25T01:44:23.534Z,4.82
2023-04-25T01:46:29.613Z,4.80
2023-04-25T01:48:34.046Z,4.80
2023-04-25T01:50:38.887Z,4.80
2023-04-25T01:52:43.329Z,4.80
2023-04-25T01:54:51.311Z,4.77
2023-04-25T01:56:59.635Z,4.75
2023-04-25T01:59:04.361Z,4.72
2023-04-25T02:01:24.111Z,4.71
2023-04-25T02:03:48.586Z,4.69
2023-04-25T02:06:02.968Z,4.71
2023-04-25T02:08:11.957Z,4.68
2023-04-25T02:10:18.104Z,4.67
2023-04-25T02:12:38.961Z,4.62
2023-04-25T02:14:56.416Z,4.59
2023-04-25T02:17:23.003Z,4.56
2023-04-25T02:19:29.264Z,4.53
2023-04-25T02:21:33.538Z,4.53
2023-04-25T02:23:38.307Z,4.50
2023-04-25T02:25:45.004Z,4.49
2023-04-25T02:27:49.751Z,4.47
2023-04-25T02:29:54.589Z,4.43
2023-04-25T02:31:59.470Z,4.39
2023-04-25T02:34:04.524Z,4.37
2023-04-25T02:36:10.277Z,4.37
2023-04-25T02:38:15.875Z,4.34
2023-04-25T02:40:19.941Z,4.31
2023-04-25T02:42:27.620Z,4.26
2023-04-25T02:44:32.458Z,4.22
2023-04-25T02:46:40.087Z,4.18
2023-04-25T02:48:44.869Z,4.15
2023-04-25T02:50:48.946Z,4.11
2023-04-25T02:52:54.827Z,4.10
2023-04-25T02:55:05.268Z,4.06
2023-04-25T02:57:11.139Z,4.03
2023-04-25T02:59:17.986Z,4.02
2023-04-25T03:01:22.797Z,4.02
2023-04-25T03:03:27.201Z,4.01
2023-04-25T03:05:32.098Z,4.04
2023-04-25T03:07:36.929Z,4.02
2023-04-25T03:09:41.294Z,3.98
2023-04-25T03:11:47.208Z,3.94
2023-04-25T03:13:51.968Z,3.93
2023-04-25T03:16:00.054Z,3.89
2023-04-25T03:18:05.057Z,3.85
2023-04-25T03:20:11.320Z,3.84
2023-04-25T03:22:15.809Z,3.82
2023-04-25T03:24:20.208Z,3.80
2023-04-25T03:26:23.854Z,3.78
2023-04-25T03:28:27.704Z,3.73
2023-04-25T03:30:33.369Z,3.71
2023-04-25T03:32:38.623Z,3.66
2023-04-25T03:34:44.413Z,3.64
2023-04-25T03:36:48.354Z,3.64
2023-04-25T03:38:52.297Z,3.64
2023-04-25T03:40:58.529Z,3.66
2023-04-25T03:43:37.434Z,3.65
2023-04-25T03:45:46.410Z,3.65
2023-04-25T03:47:51.953Z,3.62
2023-04-25T03:49:55.318Z,3.60
2023-04-25T03:52:01.372Z,3.58
2023-04-25T03:54:08.753Z,3.56
2023-04-25T03:56:44.833Z,3.54
2023-04-25T03:58:55.812Z,3.52
2023-04-25T04:01:04.054Z,3.50
2023-04-25T04:03:10.021Z,3.51
2023-04-25T04:05:14.171Z,3.50
2023-04-25T04:07:24.937Z,3.50
2023-04-25T04:09:32.045Z,3.45
2023-04-25T04:11:39.695Z,3.41
2023-04-25T04:13:43.709Z,3.35
2023-04-25T04:15:47.532Z,3.32
2023-04-25T04:17:51.245Z,3.28
2023-04-25T04:19:57.339Z,3.29
2023-04-25T04:22:00.556Z,3.29
2023-04-25T04:24:04.559Z,3.31
2023-04-25T04:26:17.602Z,3.30
2023-04-25T04:28:29.209Z,3.29
2023-04-25T04:30:42.444Z,3.29
2023-04-25T04:32:47.412Z,3.28
2023-04-25T04:34:52.123Z,3.28
2023-04-25T04:36:59.960Z,3.26
2023-04-25T04:39:04.630Z,3.26
2023-04-25T04:41:13.384Z,3.24
2023-04-25T04:43:33.684Z,3.23
2023-04-25T04:45:47.483Z,3.20
2023-04-25T04:48:13.087Z,3.16
2023-04-25T04:50:52.681Z,3.16
2023-04-25T04:53:23.226Z,3.15
2023-04-25T04:56:05.233Z,3.11
2023-04-25T04:58:30.316Z,3.11
2023-04-25T05:00:46.271Z,3.11
2023-04-25T05:03:09.073Z,3.10
2023-04-25T05:05:21.220Z,3.07
2023-04-25T05:07:47.517Z,3.05
2023-04-25T05:10:10.802Z,3.00
2023-04-25T05:12:22.260Z,2.98
2023-04-25T05:14:36.451Z,2.98
2023-04-25T05:17:00.135Z,2.96
2023-04-25T05:19:35.361Z,2.98
2023-04-25T05:22:01.734Z,3.02
2023-04-25T05:24:17.135Z,3.08
2023-04-25T05:26:41.828Z,3.09
2023-04-25T05:29:15.614Z,3.11
2023-04-25T05:31:32.336Z,3.11
2023-04-25T05:33:44.584Z,3.11
2023-04-25T05:35:48.849Z,3.10
2023-04-25T05:37:53.175Z,3.08
2023-04-25T05:40:02.841Z,3.10
2023-04-25T05:42:30.710Z,3.12
2023-04-25T05:44:57.625Z,3.16
2023-04-25T05:47:27.565Z,3.22
2023-04-25T05:49:44.443Z,3.28
2023-04-25T05:52:04.596Z,3.32
2023-04-25T05:54:40.552Z,3.37
2023-04-25T05:56:44.450Z,3.43
2023-04-25T05:58:49.828Z,3.45
2023-04-25T06:00:53.779Z,3.50
2023-04-25T06:02:57.476Z,3.56
2023-04-25T06:05:01.422Z,3.54
2023-04-25T06:07:05.402Z,3.53
2023-04-25T06:09:09.704Z,3.46
2023-04-25T06:11:13.226Z,3.47
2023-04-25T06:13:17.127Z,3.55
2023-04-25T06:15:27.997Z,3.68
2023-04-25T06:17:33.054Z,3.81
2023-04-25T06:19:38.486Z,3.88
2023-04-25T06:21:42.359Z,4.01
2023-04-25T06:23:45.966Z,4.55
2023-04-25T06:25:56.550Z,5.32
2023-04-25T06:28:00.996Z,5.82
2023-04-25T06:30:05.568Z,6.06
2023-04-25T06:32:12.321Z,6.16
2023-04-25T06:34:16.341Z,6.14
2023-04-25T06:36:19.787Z,6.04
2023-04-25T06:38:32.193Z,5.86
2023-04-25T06:40:36.260Z,5.73
2023-04-25T06:42:40.405Z,5.62
2023-04-25T06:45:02.183Z,5.61
2023-04-25T06:47:14.604Z,5.62
2023-04-25T06:49:19.734Z,5.58
2023-04-25T06:51:25.463Z,5.51
2023-04-25T06:53:31.028Z,5.48
2023-04-25T06:55:37.845Z,5.50
2023-04-25T06:57:50.056Z,5.50
2023-04-25T07:00:23.642Z,5.51
2023-04-25T07:02:28.540Z,5.52
2023-04-25T07:04:32.898Z,5.55
2023-04-25T07:06:39.191Z,5.62
2023-04-25T07:08:42.905Z,5.68
2023-04-25T07:10:49.643Z,5.71
2023-04-25T07:12:53.494Z,5.74
2023-04-25T07:14:57.532Z,5.79
2023-04-25T07:17:01.094Z,5.82
2023-04-25T07:19:08.300Z,5.87
2023-04-25T07:21:12.592Z,5.93
2023-04-25T07:23:17.954Z,6.03
2023-04-25T07:25:22.370Z,6.12
2023-04-25T07:27:26.758Z,6.19
2023-04-25T07:33:23.054Z,6.29
2023-04-25T07:35:28.872Z,6.30
2023-04-25T07:37:33.489Z,6.34
2023-04-25T07:39:48.617Z,6.38
2023-04-25T07:41:55.247Z,6.40
2023-04-25T07:44:03.152Z,6.44
2023-04-25T07:46:08.845Z,6.51
2023-04-25T07:48:13.699Z,6.61
2023-04-25T07:50:18.327Z,6.70
2023-04-25T07:52:23.942Z,6.72
2023-04-25T07:54:34.955Z,6.73
2023-04-25T07:56:52.566Z,6.73
2023-04-25T07:58:58.912Z,6.76
2023-04-25T08:01:03.380Z,6.81
2023-04-25T08:03:26.360Z,6.89
2023-04-25T08:05:32.224Z,7.09
2023-04-25T08:07:43.270Z,7.53
2023-04-25T08:09:47.589Z,7.91
2023-04-25T08:12:00.286Z,8.23
2023-04-25T08:14:08.438Z,8.46
2023-04-25T08:16:13.362Z,8.62
2023-04-25T08:18:18.240Z,8.69
2023-04-25T08:20:25.002Z,8.69
2023-04-25T08:22:33.230Z,8.55
2023-04-25T08:25:06.390Z,8.31
2023-04-25T08:27:11.352Z,8.27
2023-04-25T08:29:15.638Z,8.31
2023-04-25T08:31:19.953Z,8.39
2023-04-25T08:33:35.192Z,8.52
2023-04-25T08:35:49.920Z,8.45
2023-04-25T08:37:54.460Z,8.36
2023-04-25T08:39:58.642Z,8.24
2023-04-25T08:42:24.316Z,8.19
2023-04-25T08:44:29.499Z,8.22
2023-04-25T08:46:35.115Z,8.21
2023-04-25T08:49:00.347Z,8.32
2023-04-25T08:53:20.829Z,8.52
2023-04-25T08:55:26.691Z,8.67
2023-04-25T08:57:37.521Z,8.78
2023-04-25T08:59:47.033Z,8.85
2023-04-25T09:01:52.718Z,8.84
2023-04-25T09:04:00.619Z,8.84
2023-04-25T09:06:06.048Z,8.97
2023-04-25T09:08:10.837Z,9.11
2023-04-25T09:10:15.045Z,9.19
2023-04-25T09:12:22.125Z,9.26
2023-04-25T09:14:29.322Z,9.39
2023-04-25T09:16:59.537Z,9.37
2023-04-25T09:19:38.697Z,9.39
2023-04-25T09:21:45.728Z,9.54
2023-04-25T09:23:53.296Z,9.63
2023-04-25T09:25:58.792Z,9.76
2023-04-25T09:28:06.972Z,9.73
2023-04-25T09:30:14.720Z,9.82
2023-04-25T09:32:41.990Z,9.54
2023-04-25T09:34:50.943Z,9.26
2023-04-25T09:36:57.979Z,9.10
2023-04-25T09:39:37.230Z,9.20
2023-04-25T09:41:49.520Z,9.44
2023-04-25T09:43:53.960Z,9.42
2023-04-25T09:46:01.557Z,9.30
2023-04-25T09:48:08.832Z,9.22
2023-04-25T09:50:21.693Z,9.06
2023-04-25T09:52:31.749Z,9.14
2023-04-25T09:54:51.104Z,9.33
2023-04-25T09:57:13.244Z,9.38
2023-04-25T09:59:18.046Z,9.39
2023-04-25T10:01:25.804Z,9.39
2023-04-25T10:03:43.144Z,9.28
2023-04-25T10:06:09.899Z,9.21
2023-04-25T10:08:15.157Z,9.14
2023-04-25T10:10:20.118Z,9.01
2023-04-25T10:12:24.849Z,8.72
2023-04-25T10:14:30.056Z,8.60
2023-04-25T10:16:36.090Z,8.60
2023-04-25T10:18:40.093Z,8.49
2023-04-25T10:20:44.444Z,8.54
2023-04-25T10:22:55.462Z,8.51
2023-04-25T10:25:00.625Z,8.39
2023-04-25T10:27:04.825Z,8.28
2023-04-25T10:29:08.554Z,8.37
2023-04-25T10:31:12.723Z,8.51
2023-04-25T10:33:21.772Z,8.54
2023-04-25T10:35:29.215Z,8.62
2023-04-25T10:37:34.643Z,8.68
2023-04-25T10:39:40.692Z,8.68
2023-04-25T10:41:56.398Z,8.76
2023-04-25T10:44:03.719Z,8.89
2023-04-25T10:46:19.092Z,9.05
2023-04-25T10:48:30.184Z,9.22
2023-04-25T10:50:41.960Z,9.24
2023-04-25T10:52:46.993Z,9.20
2023-04-25T10:54:51.556Z,9.23
2023-04-25T10:56:55.906Z,9.17
2023-04-25T10:59:08.395Z,9.18
2023-04-25T11:01:12.434Z,9.10
2023-04-25T11:03:19.347Z,8.99
2023-04-25T11:05:36.434Z,8.90
2023-04-25T11:08:03.850Z,9.02
2023-04-25T11:10:11.487Z,9.53
2023-04-25T11:12:16.283Z,9.75
2023-04-25T11:14:20.162Z,10.10
2023-04-25T11:16:28.006Z,10.44
2023-04-25T11:18:34.224Z,10.24
2023-04-25T11:20:40.055Z,10.11
2023-04-25T11:22:46.592Z,10.45
2023-04-25T11:24:51.897Z,10.59
2023-04-25T11:26:55.773Z,10.62
2023-04-25T11:29:03.038Z,10.81
2023-04-25T11:31:07.955Z,10.83
2023-04-25T11:33:12.674Z,10.73
2023-04-25T11:35:17.606Z,10.60
2023-04-25T11:37:23.474Z,10.53
2023-04-25T11:39:28.179Z,10.63
2023-04-25T11:41:33.191Z,10.68
2023-04-25T11:43:36.945Z,10.62
2023-04-25T11:45:41.389Z,10.52
2023-04-25T11:47:45.853Z,10.29
2023-04-25T11:49:51.337Z,10.10
2023-04-25T11:51:55.672Z,9.89
2023-04-25T11:54:01.553Z,10.01
2023-04-25T11:56:12.681Z,9.94
2023-04-25T11:58:16.563Z,9.96
2023-04-25T12:00:22.230Z,9.79
2023-04-25T12:02:29.356Z,9.60
2023-04-25T12:04:35.183Z,9.73
2023-04-25T12:06:41.228Z,9.86
2023-04-25T12:09:06.046Z,10.03
2023-04-25T12:11:23.782Z,10.01
2023-04-25T12:13:29.642Z,10.08
2023-04-25T12:15:36.755Z,10.09
2023-04-25T12:17:41.629Z,10.11
2023-04-25T12:19:45.949Z,10.07
2023-04-25T12:21:58.104Z,10.05
2023-04-25T12:24:14.889Z,9.93
2023-04-25T12:26:22.171Z,9.67
2023-04-25T12:28:28.824Z,9.54
2023-04-25T12:30:33.400Z,9.48
2023-04-25T12:32:37.696Z,9.42
2023-04-25T12:34:41.774Z,9.37
2023-04-25T12:36:45.763Z,9.35
2023-04-25T12:38:51.115Z,9.41
2023-04-25T12:40:56.832Z,9.41
2023-04-25T12:43:00.645Z,9.39
2023-04-25T12:45:04.446Z,9.32
2023-04-25T12:47:08.966Z,9.39
2023-04-25T12:51:21.133Z,9.53
2023-04-25T12:53:26.101Z,9.63
2023-04-25T12:55:31.067Z,9.63
2023-04-25T12:57:36.302Z,9.75
2023-04-25T12:59:40.327Z,9.98
2023-04-25T13:01:44.409Z,10.00
2023-04-25T13:03:49.280Z,10.02
2023-04-25T13:05:54.002Z,9.98
2023-04-25T13:07:57.997Z,9.97
2023-04-25T13:10:02.171Z,9.97
2023-04-25T13:12:06.722Z,9.91
2023-04-25T13:14:12.189Z,9.91
2023-04-25T13:16:16.803Z,9.87
2023-04-25T13:18:22.157Z,9.93
2023-04-25T13:20:26.692Z,9.99
2023-04-25T13:22:31.405Z,9.85
2023-04-25T13:24:35.547Z,9.70
2023-04-25T13:26:39.949Z,9.53
2023-04-25T13:28:44.965Z,9.42
2023-04-25T13:30:51.110Z,9.35
2023-04-25T13:32:57.511Z,9.44
2023-04-25T13:35:03.718Z,9.49
2023-04-25T13:37:10.502Z,9.52
2023-04-25T13:39:14.940Z,9.46
2023-04-25T13:41:20.157Z,9.43
2023-04-25T13:43:25.189Z,9.43
2023-04-25T13:45:31.001Z,9.44
2023-04-25T13:47:37.523Z,9.48
2023-04-25T13:49:41.449Z,9.44
2023-04-25T13:51:45.402Z,9.49
2023-04-25T13:53:49.414Z,9.51
2023-04-25T13:55:53.597Z,9.41
2023-04-25T13:57:57.339Z,9.29
2023-04-25T14:00:06.131Z,9.27
2023-04-25T14:02:10.582Z,9.18
2023-04-25T14:04:16.657Z,9.15
2023-04-25T14:06:24.107Z,9.21
2023-04-25T14:08:29.948Z,9.23
2023-04-25T14:10:34.152Z,9.21
2023-04-25T14:12:38.382Z,9.27
2023-04-25T14:14:42.580Z,9.16
2023-04-25T14:16:46.874Z,9.14
2023-04-25T14:18:51.323Z,9.24
2023-04-25T14:20:57.529Z,9.16
2023-04-25T14:23:01.700Z,9.18
2023-04-25T14:25:06.663Z,9.23
2023-04-25T14:27:11.631Z,9.13
2023-04-25T14:29:16.012Z,9.08
2023-04-25T14:31:20.384Z,9.12
2023-04-25T14:33:25.211Z,9.22
2023-04-25T14:35:30.618Z,9.35
2023-04-25T14:37:36.164Z,9.36
2023-04-25T14:39:40.622Z,9.32
2023-04-25T14:41:45.019Z,9.35
2023-04-25T14:43:50.214Z,9.42
2023-04-25T14:45:58.407Z,9.32
2023-04-25T14:48:03.951Z,9.27
2023-04-25T14:50:10.083Z,9.17
2023-04-25T14:52:14.455Z,9.11
2023-04-25T14:54:20.354Z,9.12
2023-04-25T14:56:25.382Z,9.21
2023-04-25T14:58:30.635Z,9.19
2023-04-25T15:00:35.320Z,9.15
2023-04-25T15:02:40.227Z,9.09
2023-04-25T15:04:45.256Z,9.11
2023-04-25T15:06:50.059Z,9.16
2023-04-25T15:08:54.432Z,9.24
2023-04-25T15:11:00.387Z,9.26
2023-04-25T15:13:05.236Z,9.29
2023-04-25T15:15:17.588Z,9.29
2023-04-25T15:17:32.291Z,9.32
2023-04-25T15:19:40.121Z,9.37
2023-04-25T15:21:44.613Z,9.40
2023-04-25T15:23:49.625Z,9.44
2023-04-25T15:25:54.662Z,9.51
2023-04-25T15:28:01.176Z,9.49
2023-04-25T15:30:05.454Z,9.52
2023-04-25T15:32:10.380Z,9.49
2023-04-25T15:34:15.134Z,9.52
2023-04-25T15:36:19.724Z,9.40
2023-04-25T15:38:24.239Z,9.39
2023-04-25T15:40:28.621Z,9.35
2023-04-25T15:42:33.070Z,9.30
2023-04-25T15:44:38.686Z,9.30
2023-04-25T15:46:42.602Z,9.24
2023-04-25T15:48:46.434Z,9.18
2023-04-25T15:50:50.423Z,9.19
2023-04-25T15:52:54.869Z,9.18
2023-04-25T15:54:58.688Z,9.23
2023-04-25T15:57:02.560Z,9.07
2023-04-25T15:59:06.597Z,9.03
2023-04-25T16:01:12.601Z,9.08
2023-04-25T16:03:17.256Z,9.08
2023-04-25T16:05:21.511Z,9.15
2023-04-25T16:07:25.482Z,9.22
2023-04-25T16:09:29.587Z,9.29
2023-04-25T16:11:33.337Z,9.18
2023-04-25T16:13:37.253Z,9.14
2023-04-25T16:15:41.421Z,9.24
2023-04-25T16:17:46.983Z,9.32
2023-04-25T16:19:51.433Z,9.35
2023-04-25T16:21:55.966Z,9.29
2023-04-25T16:24:00.375Z,9.25
2023-04-25T16:26:04.404Z,9.24
2023-04-25T16:28:08.106Z,9.23
2023-04-25T16:30:12.833Z,9.22
2023-04-25T16:32:16.640Z,9.20
2023-04-25T16:34:23.839Z,9.19
2023-04-25T16:36:28.426Z,9.20
2023-04-25T16:38:32.243Z,9.12
2023-04-25T16:40:36.455Z,9.13
2023-04-25T16:42:40.962Z,9.08
2023-04-25T16:44:44.944Z,9.08
2023-04-25T16:46:49.303Z,9.04
2023-04-25T16:48:53.440Z,9.01
2023-04-25T16:50:59.583Z,8.97
2023-04-25T16:53:03.357Z,8.92
2023-04-25T16:55:08.300Z,8.90
2023-04-25T16:57:12.160Z,8.96
2023-04-25T16:59:16.471Z,8.98
2023-04-25T17:01:21.484Z,9.01
2023-04-25T17:03:26.513Z,9.07
2023-04-25T17:05:30.890Z,9.04
2023-04-25T17:07:36.410Z,9.01
2023-04-25T17:09:40.383Z,8.95
2023-04-25T17:11:44.532Z,8.89
2023-04-25T17:13:48.859Z,8.85
2023-04-25T17:15:53.286Z,8.85
2023-04-25T17:17:57.150Z,8.88
2023-04-25T17:20:01.098Z,8.90
2023-04-25T17:22:04.970Z,8.93
2023-04-25T17:24:12.366Z,8.96
2023-04-25T17:26:17.126Z,9.02
2023-04-25T17:28:20.988Z,9.05
2023-04-25T17:30:24.854Z,9.03
2023-04-25T17:32:29.059Z,9.01
2023-04-25T17:34:33.046Z,8.93
2023-04-25T17:36:37.302Z,8.90
2023-04-25T17:38:41.115Z,8.84
2023-04-25T17:40:46.616Z,8.78
2023-04-25T17:42:50.932Z,8.78
2023-04-25T17:44:55.831Z,8.77
2023-04-25T17:47:01.797Z,8.81
2023-04-25T17:49:06.393Z,8.82
2023-04-25T17:51:10.962Z,8.79
2023-04-25T17:53:15.164Z,8.77
2023-04-25T17:55:19.190Z,8.70
2023-04-25T17:57:25.688Z,8.72
2023-04-25T17:59:30.284Z,8.69
2023-04-25T18:01:34.446Z,8.60
2023-04-25T18:03:40.713Z,8.57
2023-04-25T18:05:45.546Z,8.52
2023-04-25T18:07:49.990Z,8.45
2023-04-25T18:09:53.862Z,8.39
2023-04-25T18:11:58.703Z,8.39
2023-04-25T18:14:04.578Z,8.40
2023-04-25T18:16:09.484Z,8.42
2023-04-25T18:18:20.637Z,8.43
2023-04-25T18:20:25.521Z,8.40
2023-04-25T18:22:30.274Z,8.40
2023-04-25T18:24:34.218Z,8.38
2023-04-25T18:26:38.234Z,8.40
2023-04-25T18:28:42.401Z,8.42
2023-04-25T18:30:48.119Z,8.42
2023-04-25T18:32:52.686Z,8.32
2023-04-25T18:34:56.673Z,8.27
2023-04-25T18:37:01.328Z,8.23
2023-04-25T18:39:21.534Z,8.18
2023-04-25T18:41:44.297Z,8.15
2023-04-25T18:43:52.180Z,8.12
2023-04-25T18:45:57.841Z,8.08
2023-04-25T18:48:02.727Z,8.09
2023-04-25T18:50:09.340Z,8.06
2023-04-25T18:52:16.271Z,7.97
2023-04-25T18:54:21.091Z,7.91
2023-04-25T18:56:27.172Z,7.91
2023-04-25T18:58:31.782Z,7.93
2023-04-25T19:00:36.212Z,7.93
2023-04-25T19:02:43.256Z,7.91
2023-04-25T19:04:48.696Z,7.90
2023-04-25T19:06:53.015Z,7.93
2023-04-25T19:08:57.860Z,7.93
2023-04-25T19:11:10.842Z,7.87
2023-04-25T19:13:26.236Z,7.86
2023-04-25T19:15:34.914Z,7.87
2023-04-25T19:17:42.522Z,7.88
2023-04-25T19:19:47.411Z,7.90
2023-04-25T19:21:53.015Z,7.90
2023-04-25T19:23:57.908Z,7.85
2023-04-25T19:26:02.566Z,7.84
2023-04-25T19:28:12.162Z,7.82
2023-04-25T19:30:17.026Z,7.76
2023-04-25T19:32:21.275Z,7.70
2023-04-25T19:34:27.858Z,7.68
2023-04-25T19:36:32.893Z,7.68
2023-04-25T19:38:38.183Z,7.63
2023-04-25T19:40:43.151Z,7.58
2023-04-25T19:42:48.189Z,7.55
2023-04-25T19:44:53.752Z,7.56
2023-04-25T19:47:01.018Z,7.58
2023-04-25T19:49:12.266Z,7.61
2023-04-25T19:51:21.858Z,7.61
2023-04-25T19:53:26.681Z,7.63
2023-04-25T19:55:33.338Z,7.65
2023-04-25T19:57:38.304Z,7.65
2023-04-25T19:59:46.255Z,7.66
2023-04-25T20:01:51.514Z,7.61
2023-04-25T20:03:56.257Z,7.60
2023-04-25T20:06:00.988Z,7.57
2023-04-25T20:08:07.931Z,7.57
2023-04-25T20:10:14.399Z,7.51
2023-04-25T20:12:20.011Z,7.44
2023-04-25T20:14:26.925Z,7.41
2023-04-25T20:16:33.179Z,7.36
2023-04-25T20:18:38.113Z,7.35
2023-04-25T20:20:42.761Z,7.37
2023-04-25T20:22:57.366Z,7.37
2023-04-25T20:25:05.955Z,7.33
2023-04-25T20:27:16.190Z,7.32
2023-04-25T20:29:23.773Z,7.33
2023-04-25T20:31:31.610Z,7.27
2023-04-25T20:33:39.768Z,7.27
2023-04-25T20:35:45.803Z,7.29
2023-04-25T20:37:51.309Z,7.33
2023-04-25T20:39:56.518Z,7.36
2023-04-25T20:42:10.648Z,7.37
2023-04-25T20:44:23.033Z,7.37
2023-04-25T20:46:31.954Z,7.39
2023-04-25T20:48:37.340Z,7.39
2023-04-25T20:50:47.010Z,7.38
2023-04-25T20:52:52.613Z,7.38
2023-04-25T20:55:03.255Z,7.38
2023-04-25T20:57:09.497Z,7.37
2023-04-25T20:59:14.218Z,7.36
2023-04-25T21:01:19.039Z,7.37
2023-04-25T21:03:24.148Z,7.35
2023-04-25T21:05:28.567Z,7.36
2023-04-25T21:07:33.189Z,7.40
2023-04-25T21:09:37.603Z,7.36
2023-04-25T21:11:42.919Z,7.29
2023-04-25T21:13:49.715Z,7.22
2023-04-25T21:15:54.572Z,7.19
2023-04-25T21:17:59.549Z,7.20
2023-04-25T21:20:10.677Z,7.12
2023-04-25T21:22:15.924Z,7.11
2023-04-25T21:24:23.066Z,7.09
2023-04-25T21:26:27.735Z,7.07
2023-04-25T21:28:32.743Z,7.07
2023-04-25T21:30:38.893Z,7.07
2023-04-25T21:32:44.115Z,7.08
2023-04-25T21:34:49.109Z,7.09
2023-04-25T21:36:53.495Z,7.09
2023-04-25T21:38:58.060Z,7.08
2023-04-25T21:41:02.955Z,7.06
2023-04-25T21:43:08.775Z,7.04
2023-04-25T21:45:13.821Z,7.03
2023-04-25T21:47:19.781Z,7.02
2023-04-25T21:49:29.728Z,7.04
2023-04-25T21:51:34.168Z,7.06
2023-04-25T21:53:39.068Z,7.08
2023-04-25T21:55:43.430Z,7.07
2023-04-25T21:57:48.043Z,7.03
2023-04-25T21:59:52.319Z,7.02
2023-04-25T22:01:57.593Z,6.99
2023-04-25T22:04:06.163Z,6.96
2023-04-25T22:06:11.089Z,6.95
2023-04-25T22:08:18.102Z,6.98
2023-04-25T22:10:28.899Z,7.02
2023-04-25T22:12:33.860Z,7.03
2023-04-25T22:14:39.648Z,7.05
2023-04-25T22:16:44.604Z,7.03
2023-04-25T22:18:49.813Z,7.07
2023-04-25T22:20:55.971Z,7.06
2023-04-25T22:23:00.374Z,7.02
2023-04-25T22:25:05.302Z,6.99
2023-04-25T22:27:10.658Z,6.96
2023-04-25T22:29:15.512Z,6.96
2023-04-25T22:31:21.006Z,6.95
2023-04-25T22:33:25.858Z,6.93
2023-04-25T22:35:30.034Z,6.91
2023-04-25T22:37:36.969Z,6.92
2023-04-25T22:39:41.067Z,6.93
2023-04-25T22:41:45.473Z,6.94
2023-04-25T22:43:49.658Z,6.94
2023-04-25T22:45:53.928Z,6.94
2023-04-25T22:47:58.959Z,6.91
2023-04-25T22:50:05.838Z,6.90
2023-04-25T22:52:10.708Z,6.89
2023-04-25T22:54:16.219Z,6.86
2023-04-25T22:56:20.271Z,6.83
2023-04-25T22:58:24.752Z,6.81
2023-04-25T23:00:30.686Z,6.81
2023-04-25T23:02:36.028Z,6.81
2023-04-25T23:04:40.328Z,6.80
2023-04-25T23:06:44.558Z,6.81
2023-04-25T23:08:48.637Z,6.80
2023-04-25T23:10:54.830Z,6.77
2023-04-25T23:13:01.133Z,6.74
2023-04-25T23:15:06.119Z,6.71
2023-04-25T23:17:10.326Z,6.71
2023-04-25T23:19:14.689Z,6.68
2023-04-25T23:21:19.275Z,6.68
2023-04-25T23:23:23.781Z,6.68
2023-04-25T23:25:28.897Z,6.69
2023-04-25T23:27:34.362Z,6.70
2023-04-25T23:29:38.469Z,6.68
2023-04-25T23:31:42.432Z,6.70
2023-04-25T23:33:46.506Z,6.72
2023-04-25T23:35:51.509Z,6.74
2023-04-25T23:37:56.221Z,6.77
2023-04-25T23:40:00.764Z,6.82
2023-04-25T23:42:05.299Z,6.89
2023-04-25T23:44:11.041Z,6.94
2023-04-25T23:46:15.368Z,7.01
2023-04-25T23:48:19.866Z,7.05
2023-04-25T23:50:24.517Z,7.09
2023-04-25T23:52:29.348Z,7.13
2023-04-25T23:54:33.836Z,7.14
2023-04-25T23:56:37.952Z,7.15
2023-04-25T23:58:42.255Z,7.14
